Time;durP1;ratioP1;P1;durP2;ratioP2;P2;SDS_P1;SDS_P2;PMS_P1;PMS_P2;Temp;Humidity;BMP_temperature;BMP_pressure;BME280_temperature;BME280_humidity;BME280_pressure;Samples;Min_cycle;Max_cycle;Signal;HPM_P1;HPM_P2
2023/03/02 00:01:37;;;;;;;8.13;5.18;;;;;;;-0.38;63.96;102422.25;5054704;28;19954;-76
2023/03/02 00:04:06;;;;;;;10.18;5.43;;;;;;;-0.41;63.90;102419.53;5058684;28;20035;-75
2023/03/02 00:06:34;;;;;;;10.35;4.95;;;;;;;-0.47;64.11;102413.22;5024525;28;20025;-76
2023/03/02 00:09:01;;;;;;;11.23;5.63;;;;;;;-0.54;64.35;102411.13;5033620;28;20041;-76
2023/03/02 00:11:28;;;;;;;11.10;5.50;;;;;;;-0.57;64.70;102410.97;5053335;28;20027;-76
2023/03/02 00:13:53;;;;;;;8.15;5.10;;;;;;;-0.55;65.28;102421.44;5058906;28;20036;-76
2023/03/02 00:16:18;;;;;;;7.63;4.70;;;;;;;-0.58;64.83;102416.97;5029264;28;20025;-76
2023/03/02 00:18:44;;;;;;;9.75;5.82;;;;;;;-0.58;65.20;102416.97;5033128;28;20381;-76
2023/03/02 00:21:10;;;;;;;9.73;5.68;;;;;;;-0.57;65.55;102423.06;5054882;28;20078;-76
2023/03/02 00:23:37;;;;;;;9.95;5.55;;;;;;;-0.58;65.75;102429.09;5053061;28;20445;-77
2023/03/02 00:26:04;;;;;;;8.18;4.85;;;;;;;-0.60;65.74;102422.94;5062352;28;20396;-76
2023/03/02 00:28:30;;;;;;;13.95;5.57;;;;;;;-0.63;65.99;102413.25;5043705;28;20025;-75
2023/03/02 00:30:55;;;;;;;8.90;5.10;;;;;;;-0.63;65.63;102418.47;5033313;28;20400;-76
2023/03/02 00:33:21;;;;;;;11.68;5.30;;;;;;;-0.68;66.15;102417.34;5050974;28;20078;-75
2023/03/02 00:35:48;;;;;;;10.32;4.82;;;;;;;-0.69;65.98;102413.88;5043171;28;20149;-76
2023/03/02 00:38:14;;;;;;;11.90;5.53;;;;;;;-0.68;66.50;102422.56;5048663;28;20415;-76
2023/03/02 00:40:47;;;;;;;8.57;5.13;;;;;;;-0.65;66.53;102420.97;5036621;28;20120;-76
2023/03/02 00:43:13;;;;;;;11.57;5.72;;;;;;;-0.65;66.53;102415.78;5052758;28;20079;-75
2023/03/02 00:45:39;;;;;;;9.80;5.50;;;;;;;-0.67;66.55;102421.72;5045063;28;20484;-75
2023/03/02 00:48:04;;;;;;;9.43;5.35;;;;;;;-0.67;66.06;102411.31;5036512;28;20492;-75
2023/03/02 00:50:30;;;;;;;11.15;5.63;;;;;;;-0.66;66.33;102406.19;5061141;28;20021;-75
2023/03/02 00:52:55;;;;;;;14.75;5.70;;;;;;;-0.66;66.91;102406.19;5066761;28;20041;-75
2023/03/02 00:55:21;;;;;;;9.02;5.60;;;;;;;-0.63;66.83;102410.66;5054058;28;20041;-75
2023/03/02 00:57:53;;;;;;;8.23;5.43;;;;;;;-0.62;66.63;102407.22;5036416;28;20349;-75
2023/03/02 01:00:23;;;;;;;8.18;5.18;;;;;;;-0.64;66.84;102408.91;5068878;28;20119;-75
2023/03/02 01:02:49;;;;;;;10.27;5.38;;;;;;;-0.62;66.65;102417.63;5049546;28;20051;-75
2023/03/02 01:05:16;;;;;;;8.93;4.45;;;;;;;-0.65;66.81;102418.38;5049192;28;20428;-75
2023/03/02 01:07:42;;;;;;;10.07;5.80;;;;;;;-0.66;67.19;102410.53;5050998;28;20063;-75
2023/03/02 01:10:08;;;;;;;9.45;5.65;;;;;;;-0.68;67.21;102409.53;5036024;28;20037;-76
2023/03/02 01:12:33;;;;;;;11.30;5.43;;;;;;;-0.70;67.40;102405.97;5056899;28;20032;-75
2023/03/02 01:14:59;;;;;;;11.85;5.35;;;;;;;-0.70;67.34;102406.84;5049481;28;20372;-75
2023/03/02 01:17:25;;;;;;;10.07;5.35;;;;;;;-0.71;67.48;102406.81;5043217;28;20037;-75
2023/03/02 01:19:51;;;;;;;10.85;5.93;;;;;;;-0.74;68.04;102404.03;5048799;28;20624;-75
2023/03/02 01:22:18;;;;;;;10.07;5.90;;;;;;;-0.73;68.13;102405.81;5050360;28;20526;-75
2023/03/02 01:24:44;;;;;;;12.85;6.07;;;;;;;-0.74;68.68;102406.63;5044753;28;20044;-75
2023/03/02 01:27:09;;;;;;;10.73;6.22;;;;;;;-0.77;68.76;102398.69;5054020;28;20025;-76
2023/03/02 01:29:35;;;;;;;10.05;5.60;;;;;;;-0.76;68.42;102405.69;5030370;28;20032;-76
2023/03/02 01:32:01;;;;;;;10.77;6.20;;;;;;;-0.79;68.93;102398.63;5070783;28;20029;-76
2023/03/02 01:34:27;;;;;;;14.35;6.82;;;;;;;-0.86;69.07;102386.13;5068565;28;20407;-81
2023/03/02 01:36:52;;;;;;;11.45;6.30;;;;;;;-0.84;69.22;102389.69;5055643;28;20390;-82
2023/03/02 01:39:21;;;;;;;13.07;6.72;;;;;;;-0.84;69.73;102396.59;5044000;28;20028;-81
2023/03/02 01:41:48;;;;;;;14.18;7.45;;;;;;;-0.84;70.21;102394.91;5053437;28;20037;-82
2023/03/02 01:44:35;;;;;;;9.88;6.25;;;;;;;-0.84;69.71;102388.78;5046554;28;20123;-82
2023/03/02 01:47:14;;;;;;;13.13;6.75;;;;;;;-0.86;70.42;102386.13;5037844;28;20041;-82
2023/03/02 01:49:55;;;;;;;12.55;6.63;;;;;;;-0.90;70.80;102385.06;5036147;28;20372;-81
2023/03/02 01:52:22;;;;;;;13.52;7.30;;;;;;;-0.88;71.42;102386.03;5042184;28;20365;-82
2023/03/02 01:54:52;;;;;;;14.13;7.70;;;;;;;-0.88;72.05;102383.44;5033226;28;20099;-82
2023/03/02 01:57:27;;;;;;;19.60;8.70;;;;;;;-0.90;72.22;102384.19;5040868;28;20090;-82
2023/03/02 01:59:58;;;;;;;14.80;8.60;;;;;;;-0.91;72.94;102378.09;5035067;28;20064;-82
2023/03/02 02:02:25;;;;;;;17.55;9.52;;;;;;;-0.90;73.16;102378.97;5025297;28;20029;-82
2023/03/02 02:04:53;;;;;;;16.45;8.27;;;;;;;-0.89;73.24;102378.16;5034520;28;20020;-82
2023/03/02 02:07:19;;;;;;;20.80;11.02;;;;;;;-0.93;73.93;102369.31;5061087;28;20029;-82
2023/03/02 02:09:48;;;;;;;22.45;11.20;;;;;;;-0.90;74.72;102376.38;5034837;28;20029;-82
2023/03/02 02:12:16;;;;;;;24.27;12.02;;;;;;;-0.92;76.17;102376.28;5048997;28;20045;-81
2023/03/02 02:14:43;;;;;;;25.42;12.75;;;;;;;-0.92;76.45;102378.88;5034717;28;20028;-82
2023/03/02 02:17:09;;;;;;;24.65;13.98;;;;;;;-0.91;76.91;102380.69;5030996;28;20044;-82
2023/03/02 02:20:06;;;;;;;27.40;13.70;;;;;;;-0.89;76.89;102375.56;5044739;28;20040;-82
2023/03/02 02:22:47;;;;;;;28.20;14.82;;;;;;;-0.89;77.90;102371.28;5035002;28;20033;-81
2023/03/02 02:25:31;;;;;;;26.17;14.68;;;;;;;-0.89;78.73;102371.28;5043743;28;20102;-82
2023/03/02 02:27:57;;;;;;;25.60;14.00;;;;;;;-0.89;79.16;102370.34;5040886;28;20036;-82
2023/03/02 02:30:24;;;;;;;26.73;15.48;;;;;;;-0.93;80.00;102368.44;5048782;28;20422;-82
2023/03/02 02:32:52;;;;;;;30.65;17.30;;;;;;;-0.93;80.73;102366.72;5032568;28;20028;-81
2023/03/02 02:35:23;;;;;;;28.80;16.17;;;;;;;-0.93;80.38;102364.13;5050289;28;20031;-76
2023/03/02 02:37:56;;;;;;;30.20;16.38;;;;;;;-0.92;81.52;102352.00;5030886;28;20553;-76
2023/03/02 02:40:41;;;;;;;29.02;17.02;;;;;;;-0.92;81.00;102359.81;5044322;28;20386;-76
2023/03/02 02:43:13;;;;;;;34.70;18.73;;;;;;;-0.99;81.39;102349.91;5036631;28;20120;-76
2023/03/02 02:45:39;;;;;;;39.30;17.48;;;;;;;-0.96;81.81;102355.28;5063669;28;20507;-76
2023/03/02 02:48:07;;;;;;;34.72;18.17;;;;;;;-0.95;82.68;102354.47;5068951;28;20131;-76
2023/03/02 02:50:34;;;;;;;31.52;18.58;;;;;;;-0.97;82.69;102348.28;5068247;28;20033;-76
2023/03/02 02:53:11;;;;;;;31.17;17.17;;;;;;;-0.99;82.74;102349.91;5064495;28;20470;-76
2023/03/02 02:55:40;;;;;;;29.85;18.60;;;;;;;-0.98;84.19;102341.31;5045828;28;20123;-76
2023/03/02 02:58:36;;;;;;;34.10;20.00;;;;;;;-1.00;84.76;102341.22;5050273;28;20100;-76
2023/03/02 03:01:02;;;;;;;39.10;19.38;;;;;;;-1.01;84.93;102338.56;5060843;28;20029;-76
2023/03/02 03:03:38;;;;;;;35.90;21.27;;;;;;;-1.03;84.93;102340.19;5051166;28;20028;-82
2023/03/02 03:06:16;;;;;;;33.50;20.05;;;;;;;-0.99;86.51;102339.50;5031086;28;20086;-82
2023/03/02 03:08:42;;;;;;;31.27;18.80;;;;;;;-0.96;85.60;102344.88;5051276;28;20116;-82
2023/03/02 03:11:12;;;;;;;36.40;19.42;;;;;;;-0.99;85.87;102337.84;5050058;28;20024;-82
2023/03/02 03:13:39;;;;;;;36.17;21.00;;;;;;;-0.99;86.21;102344.72;5030506;28;20090;-82
2023/03/02 03:16:08;;;;;;;40.13;20.98;;;;;;;-0.97;86.35;102343.97;5039598;28;20039;-81
2023/03/02 03:18:34;;;;;;;37.92;22.30;;;;;;;-0.96;86.35;102344.88;5048307;28;20037;-82
2023/03/02 03:21:00;;;;;;;39.72;21.73;;;;;;;-0.97;86.75;102348.28;5046254;28;20023;-82
2023/03/02 03:23:26;;;;;;;34.72;20.38;;;;;;;-0.96;86.69;102337.97;5029175;28;20032;-81
2023/03/02 03:25:51;;;;;;;38.63;21.58;;;;;;;-0.97;86.78;102338.78;5026264;28;20391;-82
2023/03/02 03:28:17;;;;;;;39.50;22.40;;;;;;;-0.97;87.49;102338.78;5017602;28;20047;-76
2023/03/02 03:30:43;;;;;;;43.20;21.23;;;;;;;-0.96;87.33;102334.47;5018855;28;20540;-76
2023/03/02 03:33:12;;;;;;;37.70;20.65;;;;;;;-0.95;87.06;102336.25;5050172;28;20040;-76
2023/03/02 03:35:39;;;;;;;41.53;23.23;;;;;;;-0.98;87.95;102331.81;5048410;28;20017;-76
2023/03/02 03:38:06;;;;;;;41.70;22.08;;;;;;;-0.96;87.91;102334.47;5009342;28;20105;-76
2023/03/02 03:40:35;;;;;;;43.15;23.33;;;;;;;-0.99;88.18;102336.91;5066498;28;20370;-76
2023/03/02 03:43:03;;;;;;;39.45;21.08;;;;;;;-0.94;88.21;102341.53;5017050;28;20029;-76
2023/03/02 03:45:29;;;;;;;40.97;23.65;;;;;;;-0.92;88.64;102346.81;5047385;28;20095;-76
2023/03/02 03:47:55;;;;;;;39.28;22.48;;;;;;;-0.93;88.66;102343.31;5061570;28;20040;-76
2023/03/02 03:50:21;;;;;;;44.03;22.00;;;;;;;-0.94;88.70;102344.16;5040148;28;20029;-76
2023/03/02 03:52:47;;;;;;;42.53;21.65;;;;;;;-0.96;88.90;102337.09;5029792;28;20107;-76
2023/03/02 03:55:21;;;;;;;40.88;22.02;;;;;;;-0.95;88.89;102338.84;5031397;28;20123;-75
2023/03/02 03:57:48;;;;;;;39.42;23.40;;;;;;;-0.95;88.25;102338.84;5050462;28;20033;-75
2023/03/02 04:00:18;;;;;;;43.92;23.25;;;;;;;-0.98;88.17;102341.31;5043969;28;20523;-75
2023/03/02 04:02:52;;;;;;;42.13;21.67;;;;;;;-1.00;87.87;102338.63;5049799;28;20037;-75
2023/03/02 04:05:19;;;;;;;38.65;20.40;;;;;;;-1.00;88.34;102335.13;5050707;28;20495;-75
2023/03/02 04:07:48;;;;;;;42.70;22.55;;;;;;;-1.02;88.25;102337.66;5046433;28;20016;-75
2023/03/02 04:10:14;;;;;;;42.45;20.38;;;;;;;-1.03;88.23;102340.19;5045426;28;20036;-75
2023/03/02 04:12:41;;;;;;;38.45;21.65;;;;;;;-1.03;88.41;102337.59;5030954;28;20391;-75
2023/03/02 04:15:12;;;;;;;38.60;21.42;;;;;;;-1.03;88.37;102335.88;5007062;28;20110;-75
2023/03/02 04:17:37;;;;;;;48.28;24.00;;;;;;;-1.05;88.66;102339.22;5030507;28;20040;-76
2023/03/02 04:20:08;;;;;;;44.30;23.20;;;;;;;-1.06;87.96;102350.41;5032378;28;20025;-75
2023/03/02 04:22:35;;;;;;;44.65;21.40;;;;;;;-1.11;87.79;102345.91;5034611;28;20029;-75
2023/03/02 04:25:00;;;;;;;44.80;21.45;;;;;;;-1.12;88.14;102348.41;5025487;28;20041;-75
2023/03/02 04:27:26;;;;;;;39.63;22.23;;;;;;;-1.18;88.72;102342.94;5037125;28;20100;-75
2023/03/02 04:29:52;;;;;;;39.92;21.52;;;;;;;-1.20;88.30;102355.84;5054558;28;20033;-75
2023/03/02 04:32:18;;;;;;;39.50;21.23;;;;;;;-1.21;89.00;102354.06;5022868;28;20036;-75
2023/03/02 04:34:50;;;;;;;45.47;20.92;;;;;;;-1.24;88.70;102351.28;5021344;28;20510;-75
2023/03/02 04:37:15;;;;;;;44.08;22.70;;;;;;;-1.25;89.36;102357.31;5045933;28;20028;-75
2023/03/02 04:39:42;;;;;;;44.20;21.85;;;;;;;-1.28;89.65;102351.09;5057633;28;20033;-75
2023/03/02 04:42:07;;;;;;;44.92;22.30;;;;;;;-1.31;89.19;102355.31;5045305;28;20438;-76
2023/03/02 04:44:32;;;;;;;42.42;21.60;;;;;;;-1.36;89.62;102342.88;5054346;28;20025;-75
2023/03/02 04:46:58;;;;;;;42.15;22.63;;;;;;;-1.35;89.98;102344.66;5062629;28;20502;-75
2023/03/02 04:49:23;;;;;;;41.80;23.48;;;;;;;-1.37;90.36;102344.56;5051318;28;20025;-75
2023/03/02 04:51:49;;;;;;;43.40;22.25;;;;;;;-1.37;89.97;102347.19;5070660;28;20068;-75
2023/03/02 04:54:25;;;;;;;42.20;22.30;;;;;;;-1.38;90.20;102348.00;5069496;28;20075;-75
2023/03/02 04:56:52;;;;;;;46.28;23.25;;;;;;;-1.37;90.50;102343.69;5071650;28;20036;-75
2023/03/02 04:59:21;;;;;;;46.80;22.15;;;;;;;-1.42;90.34;102334.78;5065695;28;20037;-76
2023/03/02 05:01:47;;;;;;;46.58;22.65;;;;;;;-1.39;90.56;102347.91;5070858;28;20333;-76
2023/03/02 05:04:13;;;;;;;44.75;22.45;;;;;;;-1.41;91.00;102347.84;5044639;28;20052;-76
2023/03/02 05:06:39;;;;;;;43.67;22.58;;;;;;;-1.43;91.28;102343.41;5054154;28;20463;-76
2023/03/02 05:09:05;;;;;;;38.83;19.55;;;;;;;-1.43;91.45;102339.09;5069564;28;20109;-76
2023/03/02 05:11:31;;;;;;;42.72;22.58;;;;;;;-1.45;91.44;102343.31;5065760;28;20074;-76
2023/03/02 05:13:59;;;;;;;44.97;22.85;;;;;;;-1.45;91.64;102345.03;5055170;28;20024;-76
2023/03/02 05:16:27;;;;;;;45.45;23.27;;;;;;;-1.46;91.93;102345.81;5067610;28;20380;-76
2023/03/02 05:18:53;;;;;;;44.78;21.75;;;;;;;-1.46;91.16;102348.41;5064721;28;20040;-76
2023/03/02 05:21:19;;;;;;;44.72;23.38;;;;;;;-1.47;91.15;102344.94;5068916;28;20511;-76
2023/03/02 05:23:45;;;;;;;42.47;22.65;;;;;;;-1.49;91.74;102337.88;5070021;28;20024;-76
2023/03/02 05:26:11;;;;;;;46.50;23.75;;;;;;;-1.49;91.53;102346.56;5070349;28;20024;-76
2023/03/02 05:28:36;;;;;;;50.40;23.27;;;;;;;-1.50;91.62;102342.19;5072173;28;20032;-76
2023/03/02 05:31:02;;;;;;;45.28;23.92;;;;;;;-1.52;91.58;102355.09;5003771;28;20057;-77
2023/03/02 05:33:28;;;;;;;47.90;23.25;;;;;;;-1.54;91.49;102348.03;5063177;28;20031;-76
2023/03/02 05:35:54;;;;;;;44.63;22.05;;;;;;;-1.52;91.43;102347.28;5043811;28;20039;-76
2023/03/02 05:38:19;;;;;;;45.50;21.98;;;;;;;-1.50;91.85;102349.09;5067598;28;20017;-77
2023/03/02 05:40:47;;;;;;;46.95;23.65;;;;;;;-1.55;91.98;102341.94;5053366;28;20036;-77
2023/03/02 05:43:19;;;;;;;42.10;21.80;;;;;;;-1.54;91.32;102348.03;5049498;28;20032;-76
2023/03/02 05:45:45;;;;;;;46.05;21.25;;;;;;;-1.66;91.03;102330.09;5064215;28;20457;-77
2023/03/02 05:48:13;;;;;;;45.60;21.98;;;;;;;-1.58;91.22;102348.69;5070420;28;20116;-76
2023/03/02 05:50:39;;;;;;;50.42;25.02;;;;;;;-1.57;91.87;102348.75;5035333;28;20037;-77
2023/03/02 05:53:05;;;;;;;44.00;21.00;;;;;;;-1.58;91.80;102340.91;5035376;28;20025;-77
2023/03/02 05:55:35;;;;;;;42.97;21.40;;;;;;;-1.60;91.75;102333.03;5043284;28;20504;-76
2023/03/02 05:58:02;;;;;;;46.65;23.27;;;;;;;-1.62;91.89;102336.34;5064299;28;20040;-76
2023/03/02 06:00:28;;;;;;;48.25;21.35;;;;;;;-1.59;91.69;102347.78;5053516;28;20032;-76
2023/03/02 06:02:55;;;;;;;45.13;21.58;;;;;;;-1.63;91.76;102343.25;5062013;28;20052;-77
2023/03/02 06:05:21;;;;;;;44.90;22.02;;;;;;;-1.62;91.81;102344.16;5035693;28;20025;-77
2023/03/02 06:07:50;;;;;;;48.13;23.33;;;;;;;-1.65;92.35;102344.00;5021362;28;20025;-76
2023/03/02 06:10:16;;;;;;;50.78;24.95;;;;;;;-1.64;92.32;102344.06;5047671;28;20097;-76
2023/03/02 06:12:42;;;;;;;47.08;21.48;;;;;;;-1.68;91.61;102344.72;5043981;28;20044;-76
2023/03/02 06:15:08;;;;;;;45.88;21.35;;;;;;;-1.67;92.08;102345.63;5054074;28;20299;-76
2023/03/02 06:17:34;;;;;;;46.70;22.63;;;;;;;-1.69;92.25;102339.44;5043942;28;20034;-76
2023/03/02 06:20:00;;;;;;;51.03;22.27;;;;;;;-1.70;92.06;102342.88;5046287;28;20017;-76
2023/03/02 06:22:25;;;;;;;45.10;23.60;;;;;;;-1.74;93.04;102337.47;5068587;28;20471;-76
2023/03/02 06:24:53;;;;;;;47.83;23.17;;;;;;;-1.75;92.65;102342.63;5044958;28;20020;-76
2023/03/02 06:27:19;;;;;;;48.10;23.80;;;;;;;-1.75;92.96;102350.41;5050142;28;20467;-76
2023/03/02 06:29:45;;;;;;;46.17;20.63;;;;;;;-1.76;92.58;102346.91;5065521;28;20033;-76
2023/03/02 06:32:10;;;;;;;48.83;23.08;;;;;;;-1.76;93.20;102356.41;5055791;28;20119;-76
2023/03/02 06:34:36;;;;;;;52.55;23.88;;;;;;;-1.80;92.92;102354.47;5069273;28;20029;-76
2023/03/02 06:37:01;;;;;;;45.47;21.48;;;;;;;-1.77;92.57;102357.22;5070017;28;20032;-76
2023/03/02 06:39:27;;;;;;;48.60;23.33;;;;;;;-1.80;92.76;102357.97;5070120;28;20112;-76
2023/03/02 06:41:52;;;;;;;46.92;22.52;;;;;;;-1.75;93.27;102363.41;5037146;28;20040;-76
2023/03/02 06:44:18;;;;;;;47.88;23.77;;;;;;;-1.75;93.00;102366.00;5046481;28;20471;-82
2023/03/02 06:46:44;;;;;;;50.45;23.05;;;;;;;-1.73;92.74;102366.97;5057403;28;20033;-82
2023/03/02 06:49:10;;;;;;;47.40;22.40;;;;;;;-1.71;92.78;102373.13;5027430;28;20017;-82
2023/03/02 06:51:37;;;;;;;53.28;22.35;;;;;;;-1.69;92.76;102368.00;5046775;28;20071;-83
2023/03/02 06:54:05;;;;;;;52.42;23.40;;;;;;;-1.70;92.64;102368.84;5035820;28;20079;-82
2023/03/02 06:56:31;;;;;;;49.10;21.83;;;;;;;-1.68;92.83;102377.56;5058536;28;20044;-77
2023/03/02 06:58:57;;;;;;;46.67;22.05;;;;;;;-1.69;92.90;102373.22;5052823;28;20027;-82
2023/03/02 07:01:22;;;;;;;53.90;23.83;;;;;;;-1.67;93.14;102377.66;5051817;28;20067;-82
2023/03/02 07:03:48;;;;;;;46.75;21.75;;;;;;;-1.64;93.03;102387.31;5053540;28;20025;-82
2023/03/02 07:06:13;;;;;;;46.88;22.30;;;;;;;-1.64;92.67;102383.00;5036483;28;20026;-83
2023/03/02 07:08:39;;;;;;;49.72;21.38;;;;;;;-1.64;92.47;102375.22;5048481;28;20032;-83
2023/03/02 07:11:11;;;;;;;47.50;22.25;;;;;;;-1.56;92.29;102386.00;5033335;28;20438;-83
2023/03/02 07:13:40;;;;;;;44.30;20.15;;;;;;;-1.54;92.53;102389.59;5051402;28;20040;-83
2023/03/02 07:16:10;;;;;;;47.03;22.17;;;;;;;-1.54;92.22;102377.47;5063389;28;20104;-83
2023/03/02 07:18:36;;;;;;;48.22;23.70;;;;;;;-1.46;92.69;102382.19;5035956;28;20037;-83
2023/03/02 07:21:03;;;;;;;46.25;22.92;;;;;;;-1.46;92.30;102377.88;5051552;28;20498;-83
2023/03/02 07:23:29;;;;;;;42.72;21.08;;;;;;;-1.43;92.54;102383.25;5024285;28;20115;-82
2023/03/02 07:25:54;;;;;;;47.10;21.80;;;;;;;-1.40;91.84;102379.94;5055678;28;20056;-82
2023/03/02 07:28:22;;;;;;;52.55;22.38;;;;;;;-1.37;92.61;102377.47;5048619;28;20033;-83
2023/03/02 07:30:49;;;;;;;50.55;22.95;;;;;;;-1.32;92.36;102384.69;5049231;28;20029;-83
2023/03/02 07:33:14;;;;;;;49.85;22.45;;;;;;;-1.25;92.38;102392.81;5032833;28;20044;-82
2023/03/02 07:35:40;;;;;;;51.55;22.23;;;;;;;-1.19;92.05;102388.81;5074133;28;20025;-80
2023/03/02 07:38:05;;;;;;;43.83;19.55;;;;;;;-1.14;91.71;102381.25;5032026;28;20091;-83
2023/03/02 07:40:31;;;;;;;43.78;20.60;;;;;;;-1.11;91.25;102376.22;5028985;28;20033;-83
2023/03/02 07:42:56;;;;;;;46.03;21.35;;;;;;;-1.08;91.25;102374.66;5044262;28;20183;-83
2023/03/02 07:45:23;;;;;;;48.40;21.48;;;;;;;-0.97;91.11;102374.28;5052580;28;20392;-83
2023/03/02 07:47:49;;;;;;;46.78;21.98;;;;;;;-0.91;91.09;102372.00;5053411;28;20033;-82
2023/03/02 07:50:15;;;;;;;50.20;22.15;;;;;;;-0.86;90.91;102367.94;5047444;28;20037;-76
2023/03/02 07:52:40;;;;;;;49.92;22.70;;;;;;;-0.78;90.47;102376.09;5037906;28;20479;-76
2023/03/02 07:55:06;;;;;;;46.38;20.30;;;;;;;-0.72;90.03;102373.78;5055626;28;20128;-76
2023/03/02 07:57:32;;;;;;;42.58;19.88;;;;;;;-0.65;89.84;102371.56;4992257;28;20060;-76
2023/03/02 07:59:57;;;;;;;44.95;22.17;;;;;;;-0.59;89.45;102372.66;5075874;28;20031;-77
2023/03/02 08:02:24;;;;;;;47.70;21.75;;;;;;;-0.49;89.34;102374.91;5041310;28;20146;-77
2023/03/02 08:04:51;;;;;;;43.33;19.67;;;;;;;-0.37;88.99;102382.38;5041409;28;20487;-77
2023/03/02 08:07:16;;;;;;;42.47;20.15;;;;;;;-0.30;88.87;102381.88;5057863;28;20037;-76
2023/03/02 08:09:42;;;;;;;42.45;20.17;;;;;;;-0.20;88.06;102383.19;5064982;28;20033;-77
2023/03/02 08:12:08;;;;;;;42.17;20.55;;;;;;;-0.13;87.89;102383.53;5026437;28;20551;-77
2023/03/02 08:14:34;;;;;;;43.65;20.50;;;;;;;-0.05;87.48;102379.59;5039424;28;20028;-77
2023/03/02 08:17:03;;;;;;;39.22;19.05;;;;;;;0.04;87.07;102379.13;5075676;28;20394;-77
2023/03/02 08:19:28;;;;;;;38.42;19.20;;;;;;;0.10;87.16;102373.28;5057616;28;20036;-77
2023/03/02 08:21:54;;;;;;;39.05;18.77;;;;;;;0.20;86.03;102373.78;5057749;28;20395;-77
2023/03/02 08:24:19;;;;;;;39.53;19.30;;;;;;;0.24;86.09;102369.59;5039583;28;20133;-77
2023/03/02 08:26:45;;;;;;;43.40;19.25;;;;;;;0.32;85.46;102370.84;5069844;28;20033;-77
2023/03/02 08:29:10;;;;;;;36.33;17.60;;;;;;;0.43;84.62;102380.03;5051013;28;20057;-78
2023/03/02 08:31:36;;;;;;;39.75;19.58;;;;;;;0.47;85.04;102372.31;5036572;28;20047;-78
2023/03/02 08:34:02;;;;;;;41.08;18.67;;;;;;;0.62;84.25;102376.50;5021647;28;20480;-78
2023/03/02 08:36:27;;;;;;;41.97;19.33;;;;;;;0.74;84.21;102385.69;5037791;28;20049;-78
2023/03/02 08:38:53;;;;;;;44.72;20.27;;;;;;;0.85;82.94;102387.03;5045911;28;20028;-77
2023/03/02 08:41:21;;;;;;;38.80;19.17;;;;;;;0.90;82.62;102387.25;5058055;28;20123;-78
2023/03/02 08:43:48;;;;;;;39.65;19.08;;;;;;;0.96;82.19;102370.09;5057685;28;20028;-78
2023/03/02 08:46:17;;;;;;;36.60;17.58;;;;;;;1.07;81.20;102384.50;5030683;28;20132;-77
2023/03/02 08:48:42;;;;;;;36.67;17.80;;;;;;;1.10;81.13;102368.09;5045306;28;20026;-77
2023/03/02 08:51:17;;;;;;;41.35;18.75;;;;;;;1.16;80.20;102359.63;5014047;28;20036;-75
2023/03/02 08:53:45;;;;;;;41.28;18.48;;;;;;;1.29;80.37;102364.53;5054757;28;20037;-76
2023/03/02 08:56:28;;;;;;;38.75;18.77;;;;;;;1.35;80.09;102372.59;5048372;28;20129;-76
2023/03/02 08:58:58;;;;;;;37.83;17.15;;;;;;;1.47;79.59;102367.84;5036305;28;20036;-75
2023/03/02 09:01:27;;;;;;;34.00;17.80;;;;;;;1.54;79.25;102362.91;5057069;28;20071;-75
2023/03/02 09:03:53;;;;;;;31.63;16.33;;;;;;;1.66;78.96;102366.88;5042891;28;20024;-75
2023/03/02 09:06:19;;;;;;;33.78;18.75;;;;;;;1.75;78.79;102365.44;5056684;28;20059;-75
2023/03/02 09:08:45;;;;;;;34.00;16.33;;;;;;;1.83;77.87;102362.31;5074147;28;20107;-75
2023/03/02 09:11:10;;;;;;;31.92;16.73;;;;;;;1.93;77.90;102368.78;5052441;28;20040;-76
2023/03/02 09:13:36;;;;;;;36.25;18.08;;;;;;;2.02;76.04;102358.66;5063886;28;20467;-75
2023/03/02 09:16:02;;;;;;;37.90;17.13;;;;;;;2.10;76.10;102361.53;5034069;28;20040;-76
2023/03/02 09:18:29;;;;;;;28.08;15.30;;;;;;;2.21;75.65;102357.63;5062143;28;20364;-76
2023/03/02 09:20:55;;;;;;;36.78;16.60;;;;;;;2.27;75.00;102357.81;5042464;28;20123;-76
2023/03/02 09:23:22;;;;;;;40.08;17.52;;;;;;;2.38;74.16;102349.50;5036457;28;20118;-76
2023/03/02 09:25:49;;;;;;;32.22;16.50;;;;;;;2.44;73.64;102355.81;5036363;28;20025;-77
2023/03/02 09:28:15;;;;;;;36.35;15.98;;;;;;;2.54;74.62;102357.03;5036437;28;20063;-76
2023/03/02 09:30:41;;;;;;;31.25;15.95;;;;;;;2.69;72.63;102351.47;5047591;28;20029;-76
2023/03/02 09:33:06;;;;;;;32.65;15.18;;;;;;;2.79;73.66;102348.31;5037025;28;20120;-77
2023/03/02 09:35:32;;;;;;;27.75;14.60;;;;;;;2.89;71.18;102347.78;5061484;28;20031;-74
2023/03/02 09:37:57;;;;;;;27.80;15.07;;;;;;;2.95;69.91;102336.66;5059295;28;20452;-76
2023/03/02 09:40:26;;;;;;;25.88;13.88;;;;;;;3.08;70.51;102340.56;5028235;28;20048;-76
2023/03/02 09:43:14;;;;;;;26.60;13.30;;;;;;;3.16;68.30;102337.34;5035440;28;20132;-76
2023/03/02 09:45:48;;;;;;;22.75;12.32;;;;;;;3.27;68.03;102339.44;5049991;28;20033;-77
2023/03/02 09:48:24;;;;;;;25.20;13.23;;;;;;;3.31;67.09;102339.56;5045150;28;20032;-77
2023/03/02 09:51:00;;;;;;;28.75;14.00;;;;;;;3.42;67.43;102338.19;5042170;28;20099;-76
2023/03/02 09:53:45;;;;;;;26.77;12.93;;;;;;;3.59;67.08;102340.47;5062842;28;20049;-76
2023/03/02 09:56:17;;;;;;;26.40;13.13;;;;;;;3.67;64.30;102339.84;5044099;28;20037;-76
2023/03/02 09:58:53;;;;;;;23.25;12.07;;;;;;;3.75;64.85;102334.81;5054591;28;20139;-76
2023/03/02 10:01:32;;;;;;;20.50;11.65;;;;;;;3.86;63.39;102341.28;5052248;28;20036;-76
2023/03/02 10:04:19;;;;;;;22.45;12.82;;;;;;;3.97;64.28;102336.34;5028288;28;20291;-77
2023/03/02 10:06:45;;;;;;;24.25;12.25;;;;;;;4.05;62.77;102344.44;5045942;28;20132;-76
2023/03/02 10:09:10;;;;;;;18.27;10.57;;;;;;;4.16;61.47;102339.53;5045066;28;20379;-77
2023/03/02 10:12:06;;;;;;;21.92;11.70;;;;;;;4.22;61.00;102337.06;5012213;28;20428;-77
2023/03/02 10:14:40;;;;;;;17.40;9.73;;;;;;;4.33;59.87;102340.88;5041414;28;20081;-75
2023/03/02 10:17:42;;;;;;;20.70;11.40;;;;;;;4.43;61.17;102337.66;5010222;28;20380;-75
2023/03/02 10:20:13;;;;;;;;;;;;;;;4.66;63.99;102347.88;5027675;28;20464;-75
2023/03/02 10:22:51;;;;;;;24.33;12.20;;;;;;;4.76;58.77;102341.13;5041230;28;19920;-75
2023/03/02 10:25:52;;;;;;;18.50;10.48;;;;;;;4.85;59.65;102339.66;5026827;28;20047;-76
2023/03/02 10:28:22;;;;;;;21.88;11.48;;;;;;;4.98;58.44;102332.97;5018945;28;20180;-76
2023/03/02 10:30:59;;;;;;;19.75;10.95;;;;;;;5.10;57.57;102329.75;5027435;28;20098;-76
2023/03/02 10:33:26;;;;;;;22.88;11.57;;;;;;;5.27;57.76;102330.19;5024180;28;20431;-76
2023/03/02 10:35:52;;;;;;;20.58;11.00;;;;;;;5.47;56.42;102323.63;5046050;28;20025;-75
2023/03/02 10:38:21;;;;;;;15.63;9.40;;;;;;;5.63;54.97;102323.97;5010069;28;20059;-75
2023/03/02 10:40:48;;;;;;;19.38;10.43;;;;;;;5.78;54.53;102326.94;5045306;28;20036;-76
2023/03/02 10:43:23;;;;;;;18.20;9.85;;;;;;;5.95;53.48;102314.19;5044829;28;20060;-75
2023/03/02 10:46:21;;;;;;;17.50;9.02;;;;;;;6.19;56.05;102311.19;5024421;28;20356;-75
2023/03/02 10:48:52;;;;;;;20.35;10.95;;;;;;;6.35;54.43;102310.59;4999898;28;20037;-76
2023/03/02 10:51:27;;;;;;;24.27;12.60;;;;;;;6.50;54.86;102306.47;5012122;28;20432;-76
2023/03/02 10:54:13;;;;;;;22.42;12.23;;;;;;;6.67;56.05;102305.03;5011543;28;20060;-76
2023/03/02 10:56:49;;;;;;;22.15;11.75;;;;;;;6.77;55.36;102296.44;5037219;28;20056;-76
2023/03/02 10:59:36;;;;;;;22.40;13.13;;;;;;;6.97;54.88;102298.53;5055751;28;20032;-76
2023/03/02 11:02:11;;;;;;;22.23;11.70;;;;;;;7.14;52.60;102304.06;5037659;28;20083;-83
2023/03/02 11:04:37;;;;;;;20.48;11.90;;;;;;;7.24;51.54;102301.59;5034247;28;20123;-83
2023/03/02 11:07:14;;;;;;;19.70;10.63;;;;;;;7.33;49.33;102300.84;5034342;28;20129;-84
2023/03/02 11:09:39;;;;;;;16.10;9.02;;;;;;;7.38;48.62;102303.56;4998931;28;20040;-84
2023/03/02 11:12:13;;;;;;;27.15;12.77;;;;;;;7.58;50.99;102295.94;5044977;28;20038;-83
2023/03/02 11:14:38;;;;;;;23.20;11.48;;;;;;;7.78;51.26;102298.84;5034232;28;20387;-83
2023/03/02 11:17:33;;;;;;;27.45;13.32;;;;;;;8.02;53.42;102293.00;5053736;28;20039;-83
2023/03/02 11:20:01;;;;;;;29.50;14.93;;;;;;;8.24;51.21;102289.72;5022440;28;20040;-83
2023/03/02 11:22:37;;;;;;;33.78;16.50;;;;;;;8.37;51.17;102296.91;5034406;28;20100;-83